Time;durP1;ratioP1;P1;durP2;ratioP2;P2;SDS_P1;SDS_P2;PMS_P1;PMS_P2;Temp;Humidity;BMP_temperature;BMP_pressure;BME280_temperature;BME280_humidity;BME280_pressure;Samples;Min_cycle;Max_cycle;Signal;HPM_P1;HPM_P2
2021/01/27 00:01:28;;;;;;;0.10;0.00;;;4.80;81.20;;;;;;6191238;23;20023;-89
2021/01/27 00:03:54;;;;;;;0.87;0.10;;;4.70;81.30;;;;;;6220769;23;20001;-89
2021/01/27 00:06:20;;;;;;;1.40;0.20;;;4.70;81.40;;;;;;6223712;23;20004;-89
2021/01/27 00:08:47;;;;;;;0.30;0.20;;;4.70;81.50;;;;;;6223199;23;19999;-90
2021/01/27 00:11:13;;;;;;;0.00;0.00;;;4.70;81.50;;;;;;6219855;23;20023;-88
2021/01/27 00:13:39;;;;;;;0.00;0.00;;;4.70;81.50;;;;;;6224150;23;20024;-89
2021/01/27 00:16:06;;;;;;;1.17;0.30;;;4.60;81.60;;;;;;6221952;23;20007;-88
2021/01/27 00:18:32;;;;;;;0.20;0.17;;;4.60;81.60;;;;;;6222982;23;20008;-90
2021/01/27 00:20:58;;;;;;;0.60;0.20;;;4.60;81.70;;;;;;6194501;23;20000;-88
2021/01/27 00:23:25;;;;;;;0.00;0.00;;;4.60;82.60;;;;;;6193334;23;20007;-89
2021/01/27 00:25:51;;;;;;;0.43;0.10;;;4.50;82.00;;;;;;6194351;23;20027;-87
2021/01/27 00:28:18;;;;;;;0.00;0.00;;;4.50;82.20;;;;;;6196972;23;19996;-88
2021/01/27 00:30:45;;;;;;;0.73;0.17;;;4.40;82.40;;;;;;6220214;23;20008;-88
2021/01/27 00:33:13;;;;;;;0.30;0.20;;;4.40;82.60;;;;;;6192353;23;19997;-87
2021/01/27 00:35:41;;;;;;;1.63;0.53;;;4.30;82.60;;;;;;6191851;23;20124;-87
2021/01/27 00:38:26;;;;;;;0.13;0.03;;;4.30;82.60;;;;;;6192237;23;20235;-88
2021/01/27 00:40:53;;;;;;;0.00;0.00;;;4.30;82.60;;;;;;6215717;23;20005;-88
2021/01/27 00:43:20;;;;;;;0.00;0.00;;;4.30;82.80;;;;;;6192083;23;20241;-89
2021/01/27 00:45:48;;;;;;;0.30;0.20;;;4.30;82.80;;;;;;6216000;23;20028;-88
2021/01/27 00:48:14;;;;;;;0.00;0.00;;;4.30;82.90;;;;;;6217394;23;20001;-88
2021/01/27 00:50:40;;;;;;;0.00;0.00;;;4.20;82.90;;;;;;6190374;23;20001;-89
2021/01/27 00:53:08;;;;;;;0.10;0.10;;;4.30;83.20;;;;;;6214887;23;20020;-88
2021/01/27 00:55:34;;;;;;;0.13;0.10;;;4.20;83.20;;;;;;6215260;23;19993;-87
2021/01/27 00:58:01;;;;;;;0.00;0.00;;;4.30;83.20;;;;;;6190247;23;20008;-90
2021/01/27 01:00:33;;;;;;;0.00;0.00;;;4.20;83.10;;;;;;6215755;23;20284;-86
2021/01/27 01:02:59;;;;;;;0.40;0.20;;;4.30;83.00;;;;;;6189681;23;20005;-89
2021/01/27 01:05:30;;;;;;;0.10;0.10;;;4.30;83.00;;;;;;6191133;23;20000;-87
2021/01/27 01:07:56;;;;;;;;;;;4.30;83.00;;;;;;6190945;23;20246;-88
2021/01/27 01:10:31;;;;;;;0.20;0.00;;;4.20;83.10;;;;;;6189077;23;19907;-88
2021/01/27 01:12:58;;;;;;;0.10;0.03;;;4.30;83.00;;;;;;6188496;23;20372;-88
2021/01/27 01:15:25;;;;;;;0.00;0.00;;;4.30;82.90;;;;;;6189940;22;20005;-89
2021/01/27 01:17:52;;;;;;;0.00;0.00;;;4.40;82.90;;;;;;6215117;23;19997;-88
2021/01/27 01:20:18;;;;;;;0.33;0.30;;;4.40;82.80;;;;;;6188810;23;20008;-88
2021/01/27 01:22:49;;;;;;;0.00;0.00;;;4.40;82.70;;;;;;6191648;23;20300;-88
2021/01/27 01:25:17;;;;;;;0.20;0.00;;;4.40;82.70;;;;;;6191359;23;20472;-89
2021/01/27 01:27:43;;;;;;;0.13;0.03;;;4.40;82.60;;;;;;6190157;23;19997;-87
2021/01/27 01:30:23;;;;;;;0.70;0.20;;;4.50;82.70;;;;;;6189651;23;20012;-89
2021/01/27 01:32:53;;;;;;;0.73;0.10;;;4.50;82.60;;;;;;6190594;23;20261;-88
2021/01/27 01:35:19;;;;;;;0.00;0.00;;;4.50;82.60;;;;;;6191668;23;19999;-90
2021/01/27 01:37:46;;;;;;;0.37;0.10;;;4.50;82.50;;;;;;6190323;23;20004;-89
2021/01/27 01:40:29;;;;;;;0.50;0.43;;;4.60;82.60;;;;;;6164650;23;20005;-88
2021/01/27 01:43:22;;;;;;;0.47;0.23;;;4.60;82.60;;;;;;6188969;23;20011;-87
2021/01/27 01:45:50;;;;;;;0.20;0.10;;;4.60;82.60;;;;;;6165765;23;20008;-89
2021/01/27 01:48:35;;;;;;;0.23;0.10;;;4.60;82.50;;;;;;6189839;23;20388;-89
2021/01/27 01:51:28;;;;;;;0.10;0.10;;;4.70;82.50;;;;;;6213777;23;20020;-88
2021/01/27 01:54:00;;;;;;;0.00;0.00;;;4.70;82.50;;;;;;6216759;23;20004;-89
2021/01/27 01:56:30;;;;;;;0.30;0.10;;;4.70;82.50;;;;;;6214552;23;20007;-89
2021/01/27 01:58:59;;;;;;;1.60;0.52;;;4.70;82.40;;;;;;6191908;23;20004;-89
2021/01/27 02:01:26;;;;;;;0.30;0.20;;;4.70;82.40;;;;;;6190915;23;20009;-88
2021/01/27 02:03:54;;;;;;;0.57;0.20;;;4.80;82.50;;;;;;6218600;23;20001;-89
2021/01/27 02:06:21;;;;;;;5.93;0.20;;;4.80;82.40;;;;;;6167568;23;20008;-88
2021/01/27 02:08:49;;;;;;;0.20;0.03;;;4.80;82.40;;;;;;6216364;23;19992;-88
2021/01/27 02:11:17;;;;;;;0.50;0.30;;;4.80;82.30;;;;;;6189486;23;20030;-88
2021/01/27 02:13:55;;;;;;;1.63;0.20;;;4.90;82.30;;;;;;6191088;23;19997;-89
2021/01/27 02:16:44;;;;;;;0.00;0.00;;;4.90;82.20;;;;;;6213961;23;20047;-88
2021/01/27 02:19:34;;;;;;;0.50;0.20;;;5.00;82.30;;;;;;6214652;23;19993;-89
2021/01/27 02:22:15;;;;;;;0.00;0.00;;;5.00;82.30;;;;;;6214616;23;20257;-89
2021/01/27 02:25:08;;;;;;;0.00;0.00;;;5.00;82.20;;;;;;6215203;23;20000;-89
2021/01/27 02:27:53;;;;;;;0.30;0.07;;;5.10;82.10;;;;;;6213669;23;20258;-88
2021/01/27 02:30:23;;;;;;;0.53;0.40;;;5.10;82.10;;;;;;6201768;22;20024;-91
2021/01/27 02:33:13;;;;;;;0.33;0.10;;;5.20;82.10;;;;;;6215356;23;20265;-89
2021/01/27 02:35:51;;;;;;;0.30;0.10;;;5.20;82.00;;;;;;6192796;23;20280;-88
2021/01/27 02:38:49;;;;;;;2.23;0.20;;;5.30;82.00;;;;;;6192537;23;19996;-87
2021/01/27 02:41:33;;;;;;;0.10;0.10;;;5.30;81.90;;;;;;6195099;23;20011;-89
2021/01/27 02:44:02;;;;;;;0.50;0.20;;;5.30;81.80;;;;;;6193725;23;20011;-89
2021/01/27 02:46:43;;;;;;;0.00;0.00;;;5.40;81.90;;;;;;6164225;23;20019;-89
2021/01/27 02:49:33;;;;;;;0.37;0.13;;;5.40;81.90;;;;;;6191421;23;19996;-88
2021/01/27 02:52:13;;;;;;;0.20;0.10;;;5.40;81.90;;;;;;6193563;23;19997;-90
2021/01/27 02:54:48;;;;;;;0.00;0.00;;;5.40;81.90;;;;;;6190535;23;20004;-88
2021/01/27 02:57:27;;;;;;;0.77;0.10;;;5.40;81.90;;;;;;6217244;23;20011;-88
2021/01/27 02:59:58;;;;;;;0.03;0.00;;;5.50;81.90;;;;;;6216203;23;20001;-90
2021/01/27 03:02:44;;;;;;;0.15;0.10;;;5.50;81.90;;;;;;6188340;23;20013;-89
2021/01/27 03:05:20;;;;;;;1.13;0.17;;;5.50;81.90;;;;;;6186715;23;20372;-90
2021/01/27 03:07:52;;;;;;;0.10;0.00;;;5.50;81.90;;;;;;6215166;23;20004;-89
2021/01/27 03:10:45;;;;;;;9.20;0.40;;;5.60;81.90;;;;;;6189811;23;20289;-89
2021/01/27 03:13:12;;;;;;;0.77;0.20;;;5.60;81.90;;;;;;6191834;23;19997;-88
2021/01/27 03:15:38;;;;;;;0.83;0.30;;;5.60;81.90;;;;;;6213223;22;20005;-89
2021/01/27 03:18:08;;;;;;;1.07;0.30;;;5.60;82.00;;;;;;6216078;23;20008;-88
2021/01/27 03:20:36;;;;;;;0.93;0.30;;;5.60;82.00;;;;;;6190872;23;20279;-88
2021/01/27 03:23:20;;;;;;;0.40;0.20;;;5.60;82.10;;;;;;6190083;23;20001;-87
2021/01/27 03:26:09;;;;;;;0.33;0.20;;;5.60;82.20;;;;;;6192283;23;19997;-89
2021/01/27 03:28:42;;;;;;;0.57;0.23;;;5.70;82.20;;;;;;6215060;23;20276;-89
2021/01/27 03:31:10;;;;;;;0.00;0.00;;;5.70;82.30;;;;;;6212645;23;20024;-89
2021/01/27 03:33:41;;;;;;;0.30;0.20;;;5.70;82.30;;;;;;6214406;23;20399;-90
2021/01/27 03:36:08;;;;;;;3.30;0.40;;;5.70;82.30;;;;;;6191092;23;20256;-90
2021/01/27 03:38:47;;;;;;;0.30;0.20;;;5.70;82.30;;;;;;6216136;23;20257;-87
2021/01/27 03:41:25;;;;;;;1.23;0.23;;;5.80;82.30;;;;;;6215844;23;20007;-87
2021/01/27 03:44:14;;;;;;;0.17;0.00;;;5.80;82.30;;;;;;6214491;23;20012;-90
2021/01/27 03:46:45;;;;;;;0.53;0.07;;;5.80;82.30;;;;;;6189960;23;20147;-90
2021/01/27 03:49:11;;;;;;;;;;;5.80;82.30;;;;;;6223075;23;19997;-90
2021/01/27 03:51:39;;;;;;;0.10;0.10;;;5.80;82.20;;;;;;6223144;23;19900;-90
2021/01/27 03:54:07;;;;;;;0.00;0.00;;;5.90;82.20;;;;;;6194065;23;19993;-90
2021/01/27 03:56:51;;;;;;;0.30;0.20;;;5.90;82.10;;;;;;6194819;23;19996;-90
2021/01/27 03:59:18;;;;;;;1.17;0.20;;;5.90;82.10;;;;;;6194007;23;20005;-90
2021/01/27 04:01:50;;;;;;;0.27;0.20;;;5.90;82.10;;;;;;6191432;23;20009;-88
2021/01/27 04:04:16;;;;;;;0.10;0.10;;;6.00;82.20;;;;;;6195600;23;19997;-89
2021/01/27 04:06:43;;;;;;;0.53;0.17;;;6.00;82.20;;;;;;6217439;23;20007;-90
2021/01/27 04:09:09;;;;;;;0.70;0.30;;;6.00;82.10;;;;;;6217337;23;20015;-88
2021/01/27 04:11:35;;;;;;;0.40;0.30;;;6.10;82.20;;;;;;6192795;23;20000;-90
2021/01/27 04:14:03;;;;;;;1.70;0.67;;;6.10;82.10;;;;;;6191550;23;20012;-88
2021/01/27 04:16:29;;;;;;;0.00;0.00;;;6.10;82.10;;;;;;6218606;23;20005;-90
2021/01/27 04:18:57;;;;;;;0.00;0.00;;;6.20;82.10;;;;;;6217751;23;20004;-90
2021/01/27 04:21:23;;;;;;;0.43;0.27;;;6.20;82.10;;;;;;6217198;23;20007;-88
2021/01/27 04:23:50;;;;;;;0.57;0.47;;;6.30;82.10;;;;;;6193059;23;20000;-90
2021/01/27 04:26:16;;;;;;;1.47;0.50;;;6.30;82.00;;;;;;6218642;23;19997;-90
2021/01/27 04:28:43;;;;;;;1.33;0.23;;;6.30;82.00;;;;;;6218731;23;20383;-89
2021/01/27 04:31:09;;;;;;;1.03;0.40;;;6.30;82.00;;;;;;6216985;23;20021;-88
2021/01/27 04:33:36;;;;;;;0.77;0.50;;;6.40;82.10;;;;;;6219004;23;20012;-86
2021/01/27 04:36:03;;;;;;;0.40;0.03;;;6.40;82.00;;;;;;6194216;23;19993;-89
2021/01/27 04:38:30;;;;;;;1.13;0.40;;;6.40;82.00;;;;;;6219219;23;20007;-90
2021/01/27 04:40:57;;;;;;;0.93;0.33;;;6.40;82.00;;;;;;6218405;23;20023;-90
2021/01/27 04:43:40;;;;;;;0.03;0.00;;;6.50;82.10;;;;;;6192632;23;20120;-89
2021/01/27 04:46:17;;;;;;;1.47;0.57;;;6.50;82.10;;;;;;6193732;23;20262;-89
2021/01/27 04:48:57;;;;;;;0.00;0.00;;;6.50;82.00;;;;;;6218092;23;20005;-91
2021/01/27 04:51:50;;;;;;;0.27;0.07;;;6.50;82.00;;;;;;6195557;23;20352;-89
2021/01/27 04:54:38;;;;;;;0.30;0.20;;;6.60;82.00;;;;;;6208101;23;19997;-90
2021/01/27 04:57:18;;;;;;;0.73;0.47;;;6.60;82.00;;;;;;6218812;23;19993;-91
2021/01/27 04:59:57;;;;;;;0.00;0.00;;;6.60;82.00;;;;;;6219254;23;19993;-90
2021/01/27 05:02:49;;;;;;;0.00;0.00;;;6.60;82.00;;;;;;6217023;23;20012;-91
2021/01/27 05:05:32;;;;;;;1.07;0.20;;;6.70;82.10;;;;;;6194993;23;20004;-91
2021/01/27 05:08:08;;;;;;;0.43;0.17;;;6.70;82.00;;;;;;6195854;23;20001;-90
2021/01/27 05:11:03;;;;;;;0.40;0.23;;;6.70;82.00;;;;;;6217300;23;20250;-91
2021/01/27 05:13:37;;;;;;;0.00;0.00;;;6.80;82.10;;;;;;6197875;23;20000;-90
2021/01/27 05:16:23;;;;;;;0.13;0.10;;;6.80;82.00;;;;;;6194013;23;19997;-90
2021/01/27 05:18:50;;;;;;;0.23;0.17;;;6.90;82.20;;;;;;6196465;23;20012;-90
2021/01/27 05:21:38;;;;;;;0.47;0.27;;;6.80;82.00;;;;;;6199963;23;20019;-88
2021/01/27 05:24:05;;;;;;;3.70;0.63;;;6.90;82.20;;;;;;6224567;23;20007;-89
2021/01/27 05:26:38;;;;;;;2.90;0.30;;;6.90;82.20;;;;;;6220990;23;20008;-90
2021/01/27 05:29:08;;;;;;;1.03;0.10;;;6.90;83.00;;;;;;6200370;22;20004;-90
2021/01/27 05:32:03;;;;;;;1.20;0.13;;;6.90;82.20;;;;;;6231116;22;20356;-90
2021/01/27 05:34:36;;;;;;;0.63;0.17;;;6.90;82.30;;;;;;6288642;22;20369;-91
2021/01/27 05:37:04;;;;;;;0.10;0.00;;;7.00;82.30;;;;;;6233066;22;20010;-90
2021/01/27 05:39:31;;;;;;;2.87;0.70;;;6.90;82.30;;;;;;6253361;22;19999;-87
2021/01/27 05:42:10;;;;;;;3.73;0.30;;;7.00;82.40;;;;;;6256044;22;19995;-91
2021/01/27 05:44:37;;;;;;;0.20;0.10;;;7.00;83.20;;;;;;6256022;22;20007;-88
2021/01/27 05:47:25;;;;;;;0.60;0.40;;;7.00;82.40;;;;;;6252306;22;20008;-88
2021/01/27 05:49:52;;;;;;;0.20;0.00;;;7.00;82.50;;;;;;6229966;22;19995;-88
2021/01/27 05:52:24;;;;;;;0.93;0.37;;;7.00;82.40;;;;;;6252993;22;19996;-89
2021/01/27 05:54:50;;;;;;;;;;;7.10;82.50;;;;;;6228251;22;20371;-91
2021/01/27 05:57:26;;;;;;;1.30;0.63;;;7.00;82.40;;;;;;6253615;22;19899;-90
2021/01/27 06:00:22;;;;;;;0.00;0.00;;;7.10;82.50;;;;;;6229768;22;19996;-91
2021/01/27 06:02:48;;;;;;;0.20;0.10;;;7.10;82.50;;;;;;6229311;22;20063;-89
2021/01/27 06:05:16;;;;;;;0.87;0.20;;;7.10;82.50;;;;;;6228807;22;20018;-89
2021/01/27 06:07:43;;;;;;;0.47;0.33;;;7.10;82.60;;;;;;6228197;22;20000;-90
2021/01/27 06:10:27;;;;;;;0.33;0.13;;;7.10;82.70;;;;;;6277200;22;20007;-91
2021/01/27 06:12:53;;;;;;;0.10;0.10;;;7.10;82.70;;;;;;6229694;22;19992;-88
2021/01/27 06:15:29;;;;;;;1.33;0.60;;;7.20;82.80;;;;;;6251207;22;19991;-90
2021/01/27 06:17:56;;;;;;;1.03;0.53;;;7.20;82.80;;;;;;6277958;22;20007;-90
2021/01/27 06:20:32;;;;;;;14.93;0.40;;;7.20;82.80;;;;;;6228186;22;19996;-91
2021/01/27 06:23:27;;;;;;;0.20;0.17;;;7.20;82.80;;;;;;6227982;22;19999;-91
2021/01/27 06:25:59;;;;;;;0.67;0.30;;;7.20;82.80;;;;;;6276976;22;20330;-89
2021/01/27 06:28:51;;;;;;;0.90;0.20;;;7.20;82.80;;;;;;6251386;22;20007;-90
2021/01/27 06:31:39;;;;;;;0.63;0.20;;;7.30;82.90;;;;;;6252966;22;20020;-90
2021/01/27 06:34:16;;;;;;;0.47;0.17;;;7.20;82.90;;;;;;6281012;22;20386;-88
2021/01/27 06:36:45;;;;;;;0.70;0.40;;;7.30;83.00;;;;;;6227375;22;20006;-89
2021/01/27 06:39:18;;;;;;;1.00;0.20;;;7.30;83.00;;;;;;6251271;22;20011;-93
2021/01/27 06:42:07;;;;;;;1.33;0.50;;;7.30;83.00;;;;;;6225930;22;20006;-89
2021/01/27 06:44:49;;;;;;;0.10;0.10;;;7.30;83.00;;;;;;6251517;22;20000;-91
2021/01/27 06:47:38;;;;;;;1.03;0.30;;;7.30;83.00;;;;;;6250018;22;20007;-93
2021/01/27 06:50:28;;;;;;;0.67;0.10;;;7.40;83.10;;;;;;6255074;22;19996;-93
2021/01/27 06:53:31;;;;;;;0.20;0.10;;;7.40;83.00;;;;;;6275947;22;20187;-91
2021/01/27 06:56:08;;;;;;;1.43;0.63;;;7.40;83.00;;;;;;6276749;22;19992;-91
2021/01/27 06:59:05;;;;;;;0.00;0.00;;;7.40;83.00;;;;;;6199928;22;20011;-90
2021/01/27 07:01:48;;;;;;;0.37;0.13;;;7.50;83.00;;;;;;6249531;22;20008;-91
2021/01/27 07:04:39;;;;;;;1.00;0.20;;;7.50;83.00;;;;;;6226704;22;20000;-93
2021/01/27 07:07:17;;;;;;;2.53;0.50;;;7.50;83.00;;;;;;6248715;22;20010;-91
2021/01/27 07:10:25;;;;;;;0.40;0.30;;;7.50;83.10;;;;;;6276530;22;20019;-92
2021/01/27 07:13:17;;;;;;;0.13;0.07;;;7.50;83.10;;;;;;6252093;22;20334;-93
2021/01/27 07:16:05;;;;;;;0.20;0.10;;;7.50;83.20;;;;;;6230446;22;20004;-92
2021/01/27 07:18:59;;;;;;;0.00;0.00;;;7.50;83.20;;;;;;6252458;22;20246;-92
2021/01/27 07:21:50;;;;;;;1.07;0.40;;;7.50;83.20;;;;;;6230013;22;20003;-93
2021/01/27 07:24:20;;;;;;;2.08;0.20;;;7.50;83.20;;;;;;6230027;22;19996;-91
2021/01/27 07:26:53;;;;;;;2.37;0.10;;;7.60;83.20;;;;;;6201717;22;20000;-92
2021/01/27 07:29:32;;;;;;;0.67;0.20;;;7.60;83.30;;;;;;6227837;22;20012;-91
2021/01/27 07:32:09;;;;;;;0.10;0.03;;;7.60;83.30;;;;;;6227467;22;20007;-93
2021/01/27 07:34:51;;;;;;;0.00;0.00;;;7.60;83.30;;;;;;6230924;22;19992;-93
2021/01/27 07:37:38;;;;;;;0.00;0.00;;;7.60;83.30;;;;;;6230451;22;20003;-92
2021/01/27 07:40:27;;;;;;;0.83;0.30;;;7.70;83.40;;;;;;6226873;22;20035;-92
2021/01/27 07:43:12;;;;;;;0.77;0.30;;;7.70;83.40;;;;;;6255110;22;20270;-92
2021/01/27 07:45:41;;;;;;;2.30;0.30;;;7.70;83.40;;;;;;6205579;22;20388;-93
2021/01/27 07:48:24;;;;;;;0.77;0.27;;;7.70;83.40;;;;;;6230350;22;20003;-92
2021/01/27 07:51:12;;;;;;;1.30;0.10;;;7.70;83.50;;;;;;6230366;22;20004;-92
2021/01/27 07:53:58;;;;;;;2.93;0.10;;;7.70;83.50;;;;;;6257876;22;19995;-92
2021/01/27 07:56:32;;;;;;;1.63;0.20;;;7.70;83.50;;;;;;6211479;22;19999;-94
2021/01/27 07:59:19;;;;;;;0.75;0.52;;;7.80;83.50;;;;;;6238375;22;20002;-92
2021/01/27 08:01:53;;;;;;;1.27;0.47;;;7.80;83.50;;;;;;6212005;22;20012;-92
2021/01/27 08:04:44;;;;;;;1.53;0.57;;;7.80;83.50;;;;;;6239524;22;20000;-92
2021/01/27 08:07:33;;;;;;;0.90;0.00;;;7.80;83.50;;;;;;6287631;22;19992;-92
2021/01/27 08:10:22;;;;;;;0.55;0.15;;;7.80;83.50;;;;;;6208589;22;20383;-93
2021/01/27 08:12:56;;;;;;;1.63;0.43;;;7.90;83.60;;;;;;6258924;22;20003;-92
2021/01/27 08:15:25;;;;;;;2.10;0.10;;;7.90;83.60;;;;;;6203121;22;20050;-93
2021/01/27 08:17:54;;;;;;;0.77;0.30;;;7.90;83.50;;;;;;6251758;22;20011;-92
2021/01/27 08:20:25;;;;;;;3.80;0.50;;;7.90;83.40;;;;;;6251520;22;20008;-92
2021/01/27 08:22:53;;;;;;;0.10;0.10;;;8.00;83.50;;;;;;6228640;22;20007;-93
2021/01/27 08:25:58;;;;;;;0.53;0.30;;;8.00;83.40;;;;;;6201333;22;20004;-93
2021/01/27 08:28:36;;;;;;;0.83;0.43;;;8.10;83.50;;;;;;6225019;22;20401;-93
2021/01/27 08:31:17;;;;;;;0.73;0.30;;;8.10;83.40;;;;;;6249672;22;20012;-94
2021/01/27 08:33:47;;;;;;;;;;;8.20;83.40;;;;;;6252241;22;20003;-94
2021/01/27 08:36:42;;;;;;;;;;;;;;;;;;;;;
2021/01/27 08:42:02;;;;;;;1.33;0.38;;;8.30;83.10;;;;;;6196071;22;20024;31
2021/01/27 08:44:42;;;;;;;0.10;0.10;;;8.30;83.10;;;;;;6165452;23;20023;-91
2021/01/27 08:52:20;;;;;;;0.08;0.00;;;8.40;83.10;;;;;;6186053;22;1409046;-88
2021/01/27 08:54:49;;;;;;;1.85;0.38;;;8.40;83.10;;;;;;6278414;22;20004;-89
2021/01/27 08:57:38;;;;;;;0.63;0.13;;;8.50;83.10;;;;;;6227438;22;20000;-91
2021/01/27 09:00:09;;;;;;;0.10;0.10;;;8.60;83.20;;;;;;6228958;22;20394;-93
2021/01/27 09:02:39;;;;;;;1.75;0.35;;;8.60;83.00;;;;;;6254020;22;20004;-90
2021/01/27 09:05:41;;;;;;;1.87;0.40;;;8.70;83.00;;;;;;6254757;22;20051;-90
2021/01/27 09:08:27;;;;;;;0.13;0.13;;;8.80;82.80;;;;;;6156675;23;20005;-88
2021/01/27 09:11:04;;;;;;;0.10;0.00;;;8.80;82.60;;;;;;6271576;22;20476;-92
2021/01/27 09:13:39;;;;;;;0.13;0.00;;;8.90;82.60;;;;;;6207754;22;19996;-90
2021/01/27 09:16:21;;;;;;;1.80;0.68;;;9.00;82.60;;;;;;6203133;22;20011;-92
2021/01/27 09:19:15;;;;;;;0.80;0.20;;;9.00;82.60;;;;;;6200435;22;20026;-92
2021/01/27 09:22:22;;;;;;;2.08;0.28;;;9.00;82.50;;;;;;6206581;22;20247;-92
2021/01/27 09:25:45;;;;;;;1.00;0.32;;;9.10;82.60;;;;;;6253850;22;20008;-84
2021/01/27 10:00:35;;;;;;;0.00;0.00;;;9.70;81.70;;;;;;6194194;23;20523;-93
2021/01/27 10:05:37;;;;;;;0.40;0.00;;;10.00;81.50;;;;;;6247363;22;20028;-93
2021/01/27 10:08:14;;;;;;;0.00;0.00;;;10.10;81.60;;;;;;6210664;22;20237;-93
2021/01/27 10:11:32;;;;;;;0.00;0.00;;;10.10;81.70;;;;;;6256594;22;20011;-94
2021/01/27 10:14:04;;;;;;;0.52;0.28;;;10.10;81.70;;;;;;6158694;23;20002;-93
2021/01/27 10:17:00;;;;;;;0.98;0.08;;;10.20;81.70;;;;;;6089494;23;20016;-92
2021/01/27 10:19:51;;;;;;;0.30;0.10;;;10.30;81.70;;;;;;6202223;22;20004;-92
2021/01/27 10:25:56;;;;;;;;;;;;;;;;;;;;;
2021/01/27 10:28:32;;;;;;;0.00;0.00;;;10.50;81.60;;;;;;6225929;22;20011;-90
2021/01/27 10:31:06;;;;;;;0.00;0.00;;;10.50;81.60;;;;;;6204567;22;20011;-89
2021/01/27 10:33:40;;;;;;;0.00;0.00;;;10.70;81.70;;;;;;6200357;22;20355;-92
2021/01/27 10:36:31;;;;;;;0.47;0.20;;;10.80;81.50;;;;;;6250036;22;20000;-93
2021/01/27 10:55:45;;;;;;;0.00;0.00;;;11.50;81.00;;;;;;6247247;23;20020;-92
2021/01/27 10:58:25;;;;;;;;;;;11.50;81.10;;;;;;6169119;23;20264;-92
2021/01/27 11:00:51;;;;;;;0.00;0.00;;;11.60;81.10;;;;;;6169547;23;19904;-91
2021/01/27 11:03:29;;;;;;;0.00;0.00;;;11.60;81.00;;;;;;6180148;23;20001;-91
2021/01/27 11:10:11;;;;;;;;;;;;;;;;;;;;;
2021/01/27 11:22:15;;;;;;;0.80;0.00;;;11.70;81.70;;;;;;6215240;23;20035;-92
2021/01/27 11:45:39;;;;;;;0.00;0.00;;;11.40;83.30;;;;;;6205045;22;20022;-93
2021/01/27 11:48:11;;;;;;;1.17;0.17;;;11.40;83.30;;;;;;6168397;23;20271;-92
2021/01/27 11:55:11;;;;;;;0.00;0.00;;;11.60;83.20;;;;;;6195905;23;20017;-92
2021/01/27 12:01:10;;;;;;;2.13;0.32;;;11.60;82.70;;;;;;6137366;22;20019;-94
2021/01/27 12:03:36;;;;;;;0.08;0.00;;;11.70;82.80;;;;;;6215492;23;20129;-91
2021/01/27 12:06:40;;;;;;;1.02;0.08;;;11.70;82.60;;;;;;6198189;23;20023;-93
2021/01/27 12:12:29;;;;;;;0.03;0.00;;;11.70;83.00;;;;;;6262785;23;20055;-93
2021/01/27 12:21:41;;;;;;;1.00;0.45;;;11.70;83.00;;;;;;6267218;23;20010;-92
2021/01/27 12:24:18;;;;;;;0.00;0.00;;;11.60;83.00;;;;;;6172704;23;20384;-92
2021/01/27 12:26:51;;;;;;;0.08;0.00;;;11.60;83.10;;;;;;6137692;23;19997;-92
2021/01/27 12:29:26;;;;;;;0.00;0.00;;;11.70;83.40;;;;;;6111611;23;20008;-93
2021/01/27 12:31:57;;;;;;;0.00;0.00;;;11.50;83.50;;;;;;6100602;23;20389;-91
2021/01/27 12:34:50;;;;;;;0.10;0.00;;;11.50;83.60;;;;;;6157923;23;20011;-89
2021/01/27 12:37:16;;;;;;;0.00;0.00;;;11.50;83.70;;;;;;6197809;23;20001;-89
2021/01/27 12:43:19;;;;;;;0.10;0.00;;;11.50;83.90;;;;;;6178141;23;20016;-91
2021/01/27 12:52:38;;;;;;;0.00;0.00;;;11.40;84.00;;;;;;6076191;23;20006;-90
2021/01/27 12:55:09;;;;;;;0.03;0.00;;;11.50;84.00;;;;;;6124537;23;20008;-90
2021/01/27 12:57:37;;;;;;;0.03;0.03;;;11.50;84.00;;;;;;6118856;23;20001;-89
2021/01/27 13:00:42;;;;;;;0.22;0.13;;;11.50;84.00;;;;;;6103982;23;19998;-92
2021/01/27 13:06:24;;;;;;;0.00;0.00;;;11.50;84.10;;;;;;6274290;22;20027;-90
2021/01/27 13:08:56;;;;;;;0.10;0.10;;;11.60;84.00;;;;;;6243656;22;20007;-90
2021/01/27 13:11:29;;;;;;;0.00;0.00;;;11.60;84.00;;;;;;6218599;22;20003;-90
2021/01/27 13:13:57;;;;;;;0.00;0.00;;;11.70;83.90;;;;;;6242144;22;20004;-90
2021/01/27 13:16:28;;;;;;;0.22;0.00;;;11.70;83.80;;;;;;6240747;22;20011;-91
2021/01/27 13:18:59;;;;;;;1.85;0.35;;;11.70;83.70;;;;;;6239935;22;20010;-90
2021/01/27 13:21:45;;;;;;;0.10;0.00;;;11.80;83.60;;;;;;6250070;22;20008;-90
2021/01/27 13:24:17;;;;;;;0.20;0.03;;;11.80;83.50;;;;;;6239839;22;20374;-91
2021/01/27 13:26:50;;;;;;;0.00;0.00;;;11.90;83.40;;;;;;6239026;22;20011;-90
2021/01/27 13:29:17;;;;;;;0.63;0.20;;;11.90;83.40;;;;;;6267550;22;19999;-90
2021/01/27 13:31:48;;;;;;;0.25;0.10;;;12.00;83.30;;;;;;6225733;22;20008;-91
2021/01/27 13:34:29;;;;;;;0.00;0.00;;;12.00;83.30;;;;;;6263885;22;20010;-90
2021/01/27 13:37:08;;;;;;;;;;;;;;;;;;;;;
2021/01/27 13:39:34;;;;;;;0.05;0.05;;;12.10;83.10;;;;;;6234193;22;20018;-90
2021/01/27 13:42:05;;;;;;;2.35;0.52;;;12.20;83.10;;;;;;6245581;22;20003;-89
2021/01/27 13:44:45;;;;;;;0.00;0.00;;;12.20;83.10;;;;;;6291344;22;20010;-90
2021/01/27 13:47:12;;;;;;;0.00;0.00;;;12.30;83.10;;;;;;6260860;22;20014;-90
2021/01/27 13:50:14;;;;;;;0.65;0.10;;;12.30;82.90;;;;;;6240710;22;20003;-90
2021/01/27 13:52:50;;;;;;;0.00;0.00;;;12.40;82.80;;;;;;6267858;22;20006;-91
2021/01/27 13:55:21;;;;;;;1.75;0.75;;;12.50;82.80;;;;;;6240520;22;20007;-90
2021/01/27 13:58:06;;;;;;;0.05;0.00;;;12.40;82.90;;;;;;6217818;22;20007;-91
2021/01/27 14:00:37;;;;;;;0.10;0.00;;;12.40;83.10;;;;;;6295294;22;20008;-91
2021/01/27 14:03:21;;;;;;;0.43;0.20;;;12.30;83.20;;;;;;6249841;22;20389;-91
2021/01/27 14:06:04;;;;;;;2.75;0.28;;;12.20;83.50;;;;;;6267436;22;20022;-91
2021/01/27 14:29:10;;;;;;;0.05;0.00;;;12.00;84.30;;;;;;6258495;22;20020;-89
2021/01/27 15:19:42;;;;;;;0.60;0.10;;;11.80;84.90;;;;;;6183306;22;20029;31
2021/01/27 16:00:30;;;;;;;0.22;0.05;;;11.50;85.90;;;;;;6251791;22;20016;-91
2021/01/27 16:03:19;;;;;;;0.17;0.10;;;11.50;86.00;;;;;;6225154;23;20000;-89
2021/01/27 16:09:07;;;;;;;0.22;0.20;;;11.50;86.10;;;;;;6261935;23;20386;-89
2021/01/27 16:11:35;;;;;;;0.00;0.00;;;11.50;86.10;;;;;;6226310;23;20263;-89
2021/01/27 16:14:01;;;;;;;0.50;0.10;;;11.50;86.10;;;;;;6175571;23;20263;-87
2021/01/27 16:16:28;;;;;;;0.30;0.20;;;11.50;86.20;;;;;;6198798;23;20004;-90
2021/01/27 16:18:54;;;;;;;0.85;0.45;;;11.50;86.20;;;;;;6225353;23;20006;-89
2021/01/27 16:22:00;;;;;;;0.88;0.52;;;11.50;86.30;;;;;;6203082;23;19997;-91
2021/01/27 16:55:00;;;;;;;;;;;;;;;;;;;;;
2021/01/27 17:46:09;;;;;;;0.57;0.20;;;11.40;87.10;;;;;;6198843;23;20379;-92
2021/01/27 17:48:53;;;;;;;0.13;0.10;;;11.30;87.10;;;;;;6187449;23;20006;-91
2021/01/27 17:52:18;;;;;;;0.63;0.22;;;11.30;87.10;;;;;;6144887;23;20005;-92
2021/01/27 17:55:01;;;;;;;0.50;0.20;;;11.40;87.10;;;;;;6202557;23;20001;-91
2021/01/27 17:57:27;;;;;;;0.25;0.10;;;11.30;87.10;;;;;;6179111;23;20007;-87
2021/01/27 17:59:54;;;;;;;0.75;0.28;;;11.40;87.10;;;;;;6180703;23;20000;-87
2021/01/27 18:02:20;;;;;;;0.00;0.00;;;11.40;87.10;;;;;;6177842;23;20287;-87
2021/01/27 18:04:50;;;;;;;0.03;0.00;;;11.40;87.10;;;;;;6176874;23;20000;-92
2021/01/27 18:07:21;;;;;;;0.50;0.08;;;11.40;87.20;;;;;;6153808;23;20719;-92
2021/01/27 19:15:52;;;;;;;0.47;0.10;;;11.50;87.60;;;;;;6204693;22;20063;-92
2021/01/27 20:25:06;;;;;;;0.70;0.20;;;11.70;87.90;;;;;;6234085;22;20271;-91
2021/01/27 20:30:56;;;;;;;0.43;0.17;;;11.80;88.00;;;;;;6261157;22;20019;-90
2021/01/27 21:03:17;;;;;;;2.63;0.35;;;11.80;87.70;;;;;;6256023;22;20261;-91
